createdAt,value
2017-03-18T00:00:28.805Z,0
2017-03-18T00:01:37.692Z,0
2017-03-18T00:02:47.237Z,0
2017-03-18T00:03:56.922Z,0
2017-03-18T00:05:06.131Z,0
2017-03-18T00:06:15.339Z,0
2017-03-18T00:07:24.876Z,0
2017-03-18T00:08:34.739Z,0
2017-03-18T00:09:45.180Z,0
2017-03-18T00:10:54.067Z,0
2017-03-18T00:12:03.602Z,0
2017-03-18T00:13:13.140Z,0
2017-03-18T00:14:23.336Z,0
2017-03-18T00:15:32.701Z,0
2017-03-18T00:16:41.912Z,0
2017-03-18T00:17:51.131Z,0
2017-03-18T00:19:01.000Z,0
2017-03-18T00:20:09.887Z,0
2017-03-18T00:21:19.405Z,0
2017-03-18T00:22:28.299Z,0
2017-03-18T00:23:38.167Z,0
2017-03-18T00:24:47.378Z,0
2017-03-18T00:25:56.273Z,0
2017-03-18T00:27:05.536Z,0
2017-03-18T00:28:15.399Z,0
2017-03-18T00:29:24.939Z,0
2017-03-18T00:30:34.802Z,0
2017-03-18T00:31:43.689Z,0
2017-03-18T00:32:53.385Z,0
2017-03-18T00:34:03.610Z,0
2017-03-18T00:35:13.478Z,0
2017-03-18T00:36:23.015Z,0
2017-03-18T00:37:32.569Z,0
2017-03-18T00:38:42.911Z,0
2017-03-18T00:39:52.129Z,0
2017-03-18T00:41:01.342Z,0
2017-03-18T00:42:10.560Z,0
2017-03-18T00:43:20.751Z,0
2017-03-18T00:44:30.665Z,0
2017-03-18T00:45:39.878Z,0
2017-03-18T00:46:49.415Z,0
2017-03-18T00:47:58.307Z,0
2017-03-18T00:49:07.854Z,0
2017-03-18T00:50:17.395Z,0
2017-03-18T00:51:26.278Z,0
2017-03-18T00:52:35.164Z,0
2017-03-18T00:53:45.357Z,0
2017-03-18T00:54:55.224Z,0
2017-03-18T00:56:04.809Z,0
2017-03-18T00:57:14.344Z,0
2017-03-18T00:58:24.536Z,0
2017-03-18T00:59:34.723Z,0
2017-03-18T01:00:43.930Z,0
2017-03-18T01:01:53.218Z,0
2017-03-18T01:03:02.754Z,0
2017-03-18T01:04:11.967Z,0
2017-03-18T01:05:21.504Z,0
2017-03-18T01:06:30.723Z,0
2017-03-18T01:07:40.752Z,0
2017-03-18T01:08:50.296Z,0
2017-03-18T01:09:59.838Z,0
2017-03-18T01:11:09.380Z,0
2017-03-18T01:12:18.593Z,0
2017-03-18T01:13:28.543Z,0
2017-03-18T01:14:38.081Z,0
2017-03-18T01:15:47.292Z,0
2017-03-18T01:16:56.182Z,0
2017-03-18T01:18:05.400Z,0
2017-03-18T01:19:14.817Z,0
2017-03-18T01:20:24.374Z,0
2017-03-18T01:21:33.596Z,0
2017-03-18T01:22:43.133Z,0
2017-03-18T01:23:53.003Z,0
2017-03-18T01:25:02.696Z,0
2017-03-18T01:26:11.583Z,0
2017-03-18T01:27:20.797Z,0
2017-03-18T01:28:30.912Z,0
2017-03-18T01:29:40.153Z,0
2017-03-18T01:30:49.189Z,0
2017-03-18T01:31:58.724Z,0
2017-03-18T01:33:08.593Z,0
2017-03-18T01:34:18.465Z,0
2017-03-18T01:35:28.006Z,0
2017-03-18T01:36:37.048Z,0
2017-03-18T01:37:46.913Z,0
2017-03-18T01:38:56.780Z,0
2017-03-18T01:40:06.321Z,0
2017-03-18T01:41:15.857Z,0
2017-03-18T01:42:25.870Z,0
2017-03-18T01:43:35.406Z,0
2017-03-18T01:44:44.949Z,0
2017-03-18T01:45:54.161Z,0
2017-03-18T01:47:03.378Z,0
2017-03-18T01:48:14.039Z,0
2017-03-18T01:49:24.227Z,0
2017-03-18T01:50:33.442Z,0
2017-03-18T01:51:42.989Z,0
2017-03-18T01:52:52.856Z,0
2017-03-18T01:54:02.642Z,0
2017-03-18T01:55:12.180Z,0
2017-03-18T01:56:22.042Z,0
2017-03-18T01:57:31.579Z,0
2017-03-18T01:58:42.098Z,0
2017-03-18T01:59:52.634Z,0
2017-03-18T02:01:02.519Z,0
2017-03-18T02:02:12.386Z,0
2017-03-18T02:03:21.972Z,0
2017-03-18T02:04:31.837Z,0
2017-03-18T02:05:41.300Z,0
2017-03-18T02:06:50.514Z,0
2017-03-18T02:08:00.381Z,0
2017-03-18T02:09:10.568Z,0
2017-03-18T02:10:20.432Z,0
2017-03-18T02:11:30.414Z,0
2017-03-18T02:12:40.283Z,0
2017-03-18T02:13:50.473Z,0
2017-03-18T02:15:00.022Z,0
2017-03-18T02:16:09.233Z,0
2017-03-18T02:17:18.174Z,0
2017-03-18T02:18:27.387Z,0
2017-03-18T02:19:36.594Z,0
2017-03-18T02:20:45.483Z,0
2017-03-18T02:21:55.017Z,0
2017-03-18T02:23:05.131Z,0
2017-03-18T02:24:14.350Z,0
2017-03-18T02:25:23.572Z,0
2017-03-18T02:26:32.778Z,0
2017-03-18T02:27:42.655Z,0
2017-03-18T02:28:53.217Z,0
2017-03-18T02:30:03.085Z,0
2017-03-18T02:31:12.618Z,0
2017-03-18T02:32:21.835Z,0
2017-03-18T02:33:31.043Z,0
2017-03-18T02:34:40.317Z,0
2017-03-18T02:35:49.854Z,0
2017-03-18T02:36:59.066Z,0
2017-03-18T02:38:09.255Z,0
2017-03-18T02:39:18.474Z,0
2017-03-18T02:40:28.192Z,0
2017-03-18T02:41:37.730Z,0
2017-03-18T02:42:47.599Z,0
2017-03-18T02:43:57.802Z,0
2017-03-18T02:45:07.015Z,0
2017-03-18T02:46:16.049Z,0
2017-03-18T02:47:25.259Z,0
2017-03-18T02:48:34.472Z,0
2017-03-18T02:49:43.686Z,0
2017-03-18T02:50:52.570Z,0
2017-03-18T02:52:02.693Z,0
2017-03-18T02:53:12.563Z,0
2017-03-18T02:54:22.096Z,0
2017-03-18T02:55:31.631Z,0
2017-03-18T02:56:40.842Z,0
2017-03-18T02:57:50.851Z,0
2017-03-18T02:59:00.717Z,0
2017-03-18T03:00:09.938Z,0
2017-03-18T03:01:19.156Z,0
2017-03-18T03:02:29.016Z,0
2017-03-18T03:03:38.610Z,0
2017-03-18T03:04:48.155Z,0
2017-03-18T03:05:57.047Z,0
2017-03-18T03:07:06.263Z,0
2017-03-18T03:08:16.127Z,0
2017-03-18T03:09:25.865Z,0
2017-03-18T03:10:35.074Z,0
2017-03-18T03:11:44.610Z,0
2017-03-18T03:12:54.158Z,0
2017-03-18T03:14:04.674Z,0
2017-03-18T03:15:14.588Z,0
2017-03-18T03:16:24.130Z,0
2017-03-18T03:17:34.317Z,0
2017-03-18T03:18:43.206Z,0
2017-03-18T03:19:53.081Z,0
2017-03-18T03:21:02.347Z,0
2017-03-18T03:22:11.560Z,0
2017-03-18T03:23:21.096Z,0
2017-03-18T03:24:30.639Z,0
2017-03-18T03:25:39.852Z,0
2017-03-18T03:26:49.168Z,0
2017-03-18T03:27:58.708Z,0
2017-03-18T03:29:08.581Z,0
2017-03-18T03:30:18.440Z,0
2017-03-18T03:31:27.329Z,0
2017-03-18T03:32:37.447Z,0
2017-03-18T03:33:47.316Z,0
2017-03-18T03:34:57.184Z,0
2017-03-18T03:36:06.719Z,0
2017-03-18T03:37:16.256Z,0
2017-03-18T03:38:26.375Z,0
2017-03-18T03:39:35.622Z,0
2017-03-18T03:40:45.161Z,0
2017-03-18T03:41:54.697Z,0
2017-03-18T03:43:04.560Z,0
2017-03-18T03:44:14.471Z,0
2017-03-18T03:45:24.007Z,0
2017-03-18T03:46:33.220Z,0
2017-03-18T03:47:43.094Z,0
2017-03-18T03:48:53.286Z,0
2017-03-18T03:50:03.856Z,0
2017-03-18T03:51:13.069Z,0
2017-03-18T03:52:22.603Z,0
2017-03-18T03:53:32.471Z,0
2017-03-18T03:54:42.013Z,0
2017-03-18T03:55:50.950Z,0
2017-03-18T03:56:59.837Z,0
2017-03-18T03:58:10.044Z,0
2017-03-18T03:59:19.585Z,0
2017-03-18T04:00:29.129Z,0
2017-03-18T04:01:38.495Z,0
2017-03-18T04:02:48.043Z,0
2017-03-18T04:03:58.239Z,0
2017-03-18T04:05:08.100Z,0
2017-03-18T04:06:17.636Z,0
2017-03-18T04:07:27.332Z,0
2017-03-18T04:08:37.851Z,0
2017-03-18T04:09:47.069Z,0
2017-03-18T04:10:56.318Z,0
2017-03-18T04:12:05.894Z,0
2017-03-18T04:13:16.272Z,0
2017-03-18T04:14:26.465Z,0
2017-03-18T04:15:36.659Z,0
2017-03-18T04:16:45.870Z,0
2017-03-18T04:17:56.062Z,0
2017-03-18T04:19:06.729Z,0
2017-03-18T04:20:16.591Z,0
2017-03-18T04:21:25.479Z,0
2017-03-18T04:22:35.017Z,0
2017-03-18T04:23:45.207Z,0
2017-03-18T04:24:54.478Z,0
2017-03-18T04:26:03.693Z,0
2017-03-18T04:27:13.555Z,0
2017-03-18T04:28:22.771Z,0
2017-03-18T04:29:32.638Z,0
2017-03-18T04:30:42.322Z,0
2017-03-18T04:31:51.885Z,0
2017-03-18T04:33:01.103Z,0
2017-03-18T04:34:10.969Z,0
2017-03-18T04:35:20.830Z,0
2017-03-18T04:36:30.044Z,0
2017-03-18T04:37:39.907Z,0
2017-03-18T04:38:50.099Z,0
2017-03-18T04:40:00.298Z,0
2017-03-18T04:41:09.509Z,0
2017-03-18T04:42:18.780Z,0
2017-03-18T04:43:28.972Z,0
2017-03-18T04:44:38.186Z,0
2017-03-18T04:45:47.723Z,0
2017-03-18T04:46:57.588Z,0
2017-03-18T04:48:07.503Z,0
2017-03-18T04:49:17.374Z,0
2017-03-18T04:50:26.262Z,0
2017-03-18T04:51:35.152Z,0
2017-03-18T04:52:44.370Z,0
2017-03-18T04:53:54.710Z,0
2017-03-18T04:55:04.584Z,0
2017-03-18T04:56:14.122Z,0
2017-03-18T04:57:23.005Z,0
2017-03-18T04:58:32.872Z,0
2017-03-18T04:59:42.473Z,0
2017-03-18T05:00:51.360Z,0
2017-03-18T05:02:01.227Z,0
2017-03-18T05:03:11.097Z,0
2017-03-18T05:04:20.977Z,0
2017-03-18T05:05:30.720Z,0
2017-03-18T05:06:40.585Z,0
2017-03-18T05:07:50.451Z,0
2017-03-18T05:09:00.329Z,0
2017-03-18T05:10:10.523Z,0
2017-03-18T05:11:20.210Z,0
2017-03-18T05:12:29.742Z,0
2017-03-18T05:13:39.616Z,0
2017-03-18T05:14:50.140Z,0
2017-03-18T05:15:59.027Z,0
2017-03-18T05:17:08.328Z,0
2017-03-18T05:18:17.870Z,0
2017-03-18T05:19:28.067Z,0
2017-03-18T05:20:37.283Z,0
2017-03-18T05:21:46.494Z,0
2017-03-18T05:22:56.846Z,0
2017-03-18T05:24:07.041Z,0
2017-03-18T05:25:16.581Z,0
2017-03-18T05:26:25.469Z,0
2017-03-18T05:27:35.006Z,0
2017-03-18T05:28:44.419Z,0
2017-03-18T05:29:54.934Z,0
2017-03-18T05:31:04.468Z,0
2017-03-18T05:32:14.012Z,0
2017-03-18T05:33:23.558Z,5
2017-03-18T05:34:33.573Z,5
2017-03-18T05:35:42.489Z,5
2017-03-18T05:36:51.382Z,5
2017-03-18T05:38:01.572Z,5
2017-03-18T05:39:11.763Z,5
2017-03-18T05:40:21.126Z,5
2017-03-18T05:41:30.343Z,5
2017-03-18T05:42:39.888Z,5
2017-03-18T05:43:50.106Z,10
2017-03-18T05:45:00.306Z,10
2017-03-18T05:46:09.822Z,10
2017-03-18T05:47:19.685Z,10
2017-03-18T05:48:29.558Z,10
2017-03-18T05:49:38.768Z,10
2017-03-18T05:50:48.636Z,15
2017-03-18T05:51:57.678Z,15
2017-03-18T05:53:07.870Z,10
2017-03-18T05:54:18.056Z,15
2017-03-18T05:55:27.267Z,10
2017-03-18T05:56:36.154Z,10
2017-03-18T05:57:46.600Z,15
2017-03-18T05:58:56.465Z,20
2017-03-18T06:00:06.337Z,25
2017-03-18T06:01:15.883Z,20
2017-03-18T06:02:25.101Z,15
2017-03-18T06:03:35.597Z,15
2017-03-18T06:04:45.187Z,15
2017-03-18T06:05:54.402Z,20
2017-03-18T06:07:03.613Z,10
2017-03-18T06:08:13.485Z,15
2017-03-18T06:09:23.141Z,20
2017-03-18T06:10:32.679Z,25
2017-03-18T06:11:41.891Z,25
2017-03-18T06:12:52.409Z,20
2017-03-18T06:14:02.277Z,25
2017-03-18T06:15:11.266Z,20
2017-03-18T06:16:20.490Z,25
2017-03-18T06:17:29.377Z,20
2017-03-18T06:18:38.925Z,25
2017-03-18T06:19:48.143Z,25
2017-03-18T06:20:57.760Z,35
2017-03-18T06:22:07.300Z,50
2017-03-18T06:23:16.517Z,70
2017-03-18T06:24:26.714Z,70
2017-03-18T06:25:35.929Z,60
2017-03-18T06:26:44.970Z,60
2017-03-18T06:27:54.835Z,60
2017-03-18T06:29:05.028Z,90
2017-03-18T06:30:14.566Z,95
2017-03-18T06:31:24.430Z,95
2017-03-18T06:32:33.571Z,95
2017-03-18T06:33:43.478Z,80
2017-03-18T06:34:53.387Z,65
2017-03-18T06:36:02.622Z,60
2017-03-18T06:37:12.809Z,65
2017-03-18T06:38:23.469Z,45
2017-03-18T06:39:33.385Z,70
2017-03-18T06:40:42.662Z,70
2017-03-18T06:41:51.879Z,90
2017-03-18T06:43:02.086Z,65
2017-03-18T06:44:11.780Z,85
2017-03-18T06:45:21.747Z,65
2017-03-18T06:46:31.334Z,55
2017-03-18T06:47:40.878Z,55
2017-03-18T06:48:50.484Z,55
2017-03-18T06:49:59.806Z,60
2017-03-18T06:51:09.345Z,40
2017-03-18T06:52:18.564Z,50
2017-03-18T06:53:28.109Z,85
2017-03-18T06:54:37.971Z,105
2017-03-18T06:55:47.591Z,95
2017-03-18T06:56:56.828Z,90
2017-03-18T06:58:06.709Z,45
2017-03-18T06:59:16.575Z,30
2017-03-18T07:00:25.468Z,45
2017-03-18T07:01:35.446Z,30
2017-03-18T07:02:45.699Z,30
2017-03-18T07:03:55.278Z,40
2017-03-18T07:05:04.495Z,40
2017-03-18T07:06:13.391Z,25
2017-03-18T07:07:22.431Z,40
2017-03-18T07:08:31.650Z,40
2017-03-18T07:09:40.869Z,40
2017-03-18T07:10:49.767Z,40
2017-03-18T07:11:58.983Z,40
2017-03-18T07:13:09.056Z,70
2017-03-18T07:14:18.920Z,70
2017-03-18T07:15:29.109Z,115
2017-03-18T07:16:38.653Z,75
2017-03-18T07:17:48.845Z,90
2017-03-18T07:18:59.297Z,165
2017-03-18T07:20:08.841Z,185
2017-03-18T07:21:18.060Z,205
2017-03-18T07:22:27.276Z,205
2017-03-18T07:23:37.146Z,215
2017-03-18T07:24:46.742Z,220
2017-03-18T07:25:55.955Z,200
2017-03-18T07:27:04.848Z,220
2017-03-18T07:28:15.367Z,205
2017-03-18T07:29:25.886Z,215
2017-03-18T07:30:35.733Z,225
2017-03-18T07:31:44.958Z,195
2017-03-18T07:32:54.830Z,205
2017-03-18T07:34:04.702Z,210
2017-03-18T07:35:14.241Z,225
2017-03-18T07:36:23.609Z,175
2017-03-18T07:37:33.476Z,195
2017-03-18T07:38:43.668Z,230
2017-03-18T07:39:53.213Z,200
2017-03-18T07:41:02.427Z,225
2017-03-18T07:42:11.797Z,245
2017-03-18T07:43:22.319Z,305
2017-03-18T07:44:31.540Z,255
2017-03-18T07:45:40.755Z,300
2017-03-18T07:46:50.298Z,320
2017-03-18T07:47:59.449Z,355
2017-03-18T07:49:09.641Z,380
2017-03-18T07:50:19.182Z,370
2017-03-18T07:51:28.746Z,360
2017-03-18T07:52:37.965Z,300
2017-03-18T07:53:47.761Z,290
2017-03-18T07:54:57.630Z,245
2017-03-18T07:56:06.522Z,245
2017-03-18T07:57:16.060Z,225
2017-03-18T07:58:26.254Z,250
2017-03-18T07:59:36.097Z,275
2017-03-18T08:00:45.307Z,300
2017-03-18T08:01:54.525Z,335
2017-03-18T08:03:04.723Z,300
2017-03-18T08:04:14.597Z,290
2017-03-18T08:05:23.841Z,310
2017-03-18T08:06:32.732Z,235
2017-03-18T08:07:42.285Z,305
2017-03-18T08:08:52.483Z,315
2017-03-18T08:10:02.685Z,290
2017-03-18T08:11:11.778Z,275
2017-03-18T08:12:21.325Z,285
2017-03-18T08:13:31.189Z,280
2017-03-18T08:14:40.080Z,280
2017-03-18T08:15:48.970Z,305
2017-03-18T08:16:58.512Z,285
2017-03-18T08:18:08.709Z,275
2017-03-18T08:19:18.257Z,295
2017-03-18T08:20:27.145Z,290
2017-03-18T08:21:36.681Z,310
2017-03-18T08:22:46.880Z,310
2017-03-18T08:23:56.425Z,355
2017-03-18T08:25:06.296Z,360
2017-03-18T08:26:15.188Z,320
2017-03-18T08:27:24.405Z,310
2017-03-18T08:28:34.534Z,315
2017-03-18T08:29:44.409Z,330
2017-03-18T08:30:53.623Z,285
2017-03-18T08:32:03.164Z,320
2017-03-18T08:33:13.037Z,270
2017-03-18T08:34:22.504Z,320
2017-03-18T08:35:31.389Z,330
2017-03-18T08:36:40.631Z,320
2017-03-18T08:37:50.174Z,300
2017-03-18T08:38:59.728Z,335
2017-03-18T08:40:08.671Z,370
2017-03-18T08:41:18.214Z,300
2017-03-18T08:42:27.815Z,355
2017-03-18T08:43:37.355Z,310
2017-03-18T08:44:46.905Z,365
2017-03-18T08:45:56.178Z,375
2017-03-18T08:47:05.724Z,390
2017-03-18T08:48:14.939Z,380
2017-03-18T08:49:24.811Z,390
2017-03-18T08:50:34.348Z,410
2017-03-18T08:51:43.716Z,390
2017-03-18T08:52:53.258Z,405
2017-03-18T08:54:03.472Z,430
2017-03-18T08:55:12.743Z,430
2017-03-18T08:56:21.958Z,360
2017-03-18T08:57:31.332Z,430
2017-03-18T08:58:40.872Z,425
2017-03-18T08:59:50.421Z,440
2017-03-18T09:00:59.311Z,355
2017-03-18T09:02:08.204Z,420
2017-03-18T09:03:17.574Z,320
2017-03-18T09:04:27.443Z,395
2017-03-18T09:05:37.306Z,430
2017-03-18T09:06:46.845Z,310
2017-03-18T09:07:56.075Z,265
2017-03-18T09:09:06.322Z,370
2017-03-18T09:10:15.867Z,400
2017-03-18T09:11:25.081Z,405
2017-03-18T09:12:34.955Z,440
2017-03-18T09:13:44.175Z,430
2017-03-18T09:14:54.196Z,460
2017-03-18T09:16:03.415Z,440
2017-03-18T09:17:12.307Z,435
2017-03-18T09:18:21.854Z,450
2017-03-18T09:19:31.079Z,450
2017-03-18T09:20:40.210Z,450
2017-03-18T09:21:49.432Z,405
2017-03-18T09:22:58.986Z,410
2017-03-18T09:24:08.528Z,405
2017-03-18T09:25:18.080Z,420
2017-03-18T09:26:27.302Z,475
2017-03-18T09:27:36.526Z,470
2017-03-18T09:28:46.072Z,475
2017-03-18T09:29:55.618Z,435
2017-03-18T09:31:04.832Z,470
2017-03-18T09:32:13.728Z,490
2017-03-18T09:33:23.924Z,460
2017-03-18T09:34:33.140Z,350
2017-03-18T09:35:42.676Z,380
2017-03-18T09:36:51.617Z,365
2017-03-18T09:38:01.161Z,370
2017-03-18T09:39:10.705Z,415
2017-03-18T09:40:20.253Z,510
2017-03-18T09:41:29.467Z,450
2017-03-18T09:42:38.679Z,495
2017-03-18T09:43:48.556Z,545
2017-03-18T09:44:59.122Z,435
2017-03-18T09:46:08.020Z,550
2017-03-18T09:47:17.236Z,410
2017-03-18T09:48:27.136Z,495
2017-03-18T09:49:36.352Z,425
2017-03-18T09:50:45.249Z,455
2017-03-18T09:51:54.565Z,460
2017-03-18T09:53:04.760Z,405
2017-03-18T09:54:13.982Z,525
2017-03-18T09:55:23.193Z,440
2017-03-18T09:56:32.416Z,420
2017-03-18T09:57:41.887Z,510
2017-03-18T09:58:52.086Z,525
2017-03-18T10:00:01.638Z,470
2017-03-18T10:01:10.859Z,405
2017-03-18T10:02:19.762Z,350
2017-03-18T10:03:29.391Z,340
2017-03-18T10:04:39.265Z,225
2017-03-18T10:05:48.479Z,245
2017-03-18T10:06:58.030Z,235
2017-03-18T10:08:07.253Z,225
2017-03-18T10:09:17.173Z,330
2017-03-18T10:10:26.712Z,435
2017-03-18T10:11:35.601Z,565
2017-03-18T10:12:45.813Z,440
2017-03-18T10:13:55.686Z,375
2017-03-18T10:15:06.456Z,460
2017-03-18T10:16:15.360Z,460
2017-03-18T10:17:24.249Z,465
2017-03-18T10:18:33.137Z,590
2017-03-18T10:19:42.361Z,555
2017-03-18T10:20:51.727Z,425
2017-03-18T10:22:00.616Z,465
2017-03-18T10:23:10.160Z,575
2017-03-18T10:24:19.711Z,560
2017-03-18T10:25:28.932Z,550
2017-03-18T10:26:38.200Z,570
2017-03-18T10:27:47.455Z,540
2017-03-18T10:28:56.726Z,615
2017-03-18T10:30:05.955Z,640
2017-03-18T10:31:15.173Z,465
2017-03-18T10:32:25.200Z,505
2017-03-18T10:33:34.424Z,490
2017-03-18T10:34:43.968Z,540
2017-03-18T10:35:53.511Z,495
2017-03-18T10:37:02.726Z,430
2017-03-18T10:38:12.792Z,545
2017-03-18T10:39:22.659Z,520
2017-03-18T10:40:32.199Z,645
2017-03-18T10:41:41.092Z,650
2017-03-18T10:42:50.312Z,680
2017-03-18T10:43:59.682Z,665
2017-03-18T10:45:08.902Z,530
2017-03-18T10:46:18.125Z,425
2017-03-18T10:47:27.028Z,395
2017-03-18T10:48:36.657Z,375
2017-03-18T10:49:46.352Z,430
2017-03-18T10:50:55.576Z,505
2017-03-18T10:52:04.798Z,485
2017-03-18T10:53:14.346Z,505
2017-03-18T10:54:23.572Z,555
2017-03-18T10:55:32.888Z,495
2017-03-18T10:56:42.112Z,600
2017-03-18T10:57:51.332Z,720
2017-03-18T10:59:00.888Z,685
2017-03-18T11:00:10.429Z,625
2017-03-18T11:01:19.894Z,580
2017-03-18T11:02:29.769Z,640
2017-03-18T11:03:39.641Z,655
2017-03-18T11:04:49.217Z,620
2017-03-18T11:05:58.757Z,575
2017-03-18T11:07:07.702Z,570
2017-03-18T11:08:17.246Z,550
2017-03-18T11:09:27.132Z,670
2017-03-18T11:10:36.357Z,730
2017-03-18T11:11:45.256Z,610
2017-03-18T11:12:55.282Z,510
2017-03-18T11:14:05.158Z,375
2017-03-18T11:15:14.429Z,405
2017-03-18T11:16:23.649Z,455
2017-03-18T11:17:32.865Z,485
2017-03-18T11:18:42.521Z,485
2017-03-18T11:19:52.393Z,605
2017-03-18T11:21:01.937Z,555
2017-03-18T11:22:11.477Z,530
2017-03-18T11:23:21.021Z,640
2017-03-18T11:24:31.043Z,585
2017-03-18T11:25:40.262Z,525
2017-03-18T11:26:49.482Z,525
2017-03-18T11:27:59.026Z,585
2017-03-18T11:29:09.222Z,535
2017-03-18T11:30:18.915Z,495
2017-03-18T11:31:28.136Z,485
2017-03-18T11:32:37.691Z,630
2017-03-18T11:33:47.236Z,570
2017-03-18T11:34:57.118Z,580
2017-03-18T11:36:06.387Z,495
2017-03-18T11:37:15.938Z,535
2017-03-18T11:38:25.486Z,615
2017-03-18T11:39:34.709Z,620
2017-03-18T11:40:44.266Z,680
2017-03-18T11:41:53.662Z,675
2017-03-18T11:43:02.923Z,680
2017-03-18T11:44:11.817Z,585
2017-03-18T11:45:20.707Z,785
2017-03-18T11:46:29.948Z,770
2017-03-18T11:47:40.135Z,780
2017-03-18T11:48:50.023Z,710
2017-03-18T11:49:59.570Z,625
2017-03-18T11:51:08.817Z,600
2017-03-18T11:52:17.732Z,455
2017-03-18T11:53:27.688Z,440
2017-03-18T11:54:37.562Z,415
2017-03-18T11:55:47.107Z,500
2017-03-18T11:56:56.000Z,495
2017-03-18T11:58:04.898Z,405
2017-03-18T11:59:15.126Z,385
2017-03-18T12:00:24.349Z,440
2017-03-18T12:01:33.900Z,410
2017-03-18T12:02:43.476Z,475
2017-03-18T12:03:53.684Z,660
2017-03-18T12:05:03.064Z,620
2017-03-18T12:06:12.279Z,580
2017-03-18T12:07:21.170Z,605
2017-03-18T12:08:30.722Z,660
2017-03-18T12:09:40.316Z,1860
2017-03-18T12:10:49.965Z,1690
2017-03-18T12:11:59.512Z,790
2017-03-18T12:13:08.741Z,780
2017-03-18T12:14:18.316Z,1785
2017-03-18T12:15:27.213Z,1985
2017-03-18T12:16:36.256Z,1910
2017-03-18T12:17:46.458Z,2190
2017-03-18T12:18:56.542Z,2235
2017-03-18T12:20:05.770Z,780
2017-03-18T12:21:14.673Z,785
2017-03-18T12:22:24.214Z,950
2017-03-18T12:23:33.440Z,2015
2017-03-18T12:24:42.991Z,935
2017-03-18T12:25:51.882Z,1535
2017-03-18T12:27:01.158Z,1590
2017-03-18T12:28:10.896Z,805
2017-03-18T12:29:20.449Z,1635
2017-03-18T12:30:29.678Z,750
2017-03-18T12:31:38.575Z,1595
2017-03-18T12:32:48.453Z,1305
2017-03-18T12:33:58.157Z,660
2017-03-18T12:35:07.094Z,740
2017-03-18T12:36:16.322Z,625
2017-03-18T12:37:25.904Z,510
2017-03-18T12:38:35.451Z,540
2017-03-18T12:39:45.477Z,570
2017-03-18T12:40:54.373Z,590
2017-03-18T12:42:03.926Z,785
2017-03-18T12:43:13.808Z,860
2017-03-18T12:44:23.689Z,420
2017-03-18T12:45:32.634Z,560
2017-03-18T12:46:41.526Z,1260
2017-03-18T12:47:51.076Z,1490
2017-03-18T12:49:00.965Z,630
2017-03-18T12:50:10.519Z,795
2017-03-18T12:51:20.204Z,1935
2017-03-18T12:52:29.750Z,1380
2017-03-18T12:53:39.623Z,2015
2017-03-18T12:54:49.187Z,1560
2017-03-18T12:55:58.404Z,880
2017-03-18T12:57:08.005Z,1210
2017-03-18T12:58:17.556Z,830
2017-03-18T12:59:27.785Z,1595
2017-03-18T13:00:36.683Z,715
2017-03-18T13:01:46.272Z,790
2017-03-18T13:02:56.175Z,1970
2017-03-18T13:04:05.732Z,710
2017-03-18T13:05:15.645Z,880
2017-03-18T13:06:24.539Z,1190
2017-03-18T13:07:33.764Z,675
2017-03-18T13:08:44.025Z,770
2017-03-18T13:09:54.224Z,815
2017-03-18T13:11:03.120Z,610
2017-03-18T13:12:13.101Z,820
2017-03-18T13:13:22.360Z,1035
2017-03-18T13:14:32.150Z,865
2017-03-18T13:15:41.738Z,1170
2017-03-18T13:16:50.986Z,810
2017-03-18T13:18:00.208Z,1225
2017-03-18T13:19:09.432Z,705
2017-03-18T13:20:19.029Z,650
2017-03-18T13:21:28.252Z,735
2017-03-18T13:22:37.152Z,855
2017-03-18T13:23:47.033Z,820
2017-03-18T13:24:56.658Z,680
2017-03-18T13:26:06.045Z,590
2017-03-18T13:27:14.943Z,605
2017-03-18T13:28:23.838Z,630
2017-03-18T13:29:33.723Z,650
2017-03-18T13:30:42.948Z,650
2017-03-18T13:31:51.995Z,645
2017-03-18T13:33:00.905Z,710
2017-03-18T13:34:11.153Z,980
2017-03-18T13:35:20.163Z,1055
2017-03-18T13:36:29.062Z,910
2017-03-18T13:37:39.499Z,835
2017-03-18T13:38:49.704Z,690
2017-03-18T13:39:59.256Z,675
2017-03-18T13:41:08.803Z,620
2017-03-18T13:42:17.698Z,525
2017-03-18T13:43:26.982Z,555
2017-03-18T13:44:36.526Z,565
2017-03-18T13:45:46.071Z,585
2017-03-18T13:46:54.964Z,655
2017-03-18T13:48:04.515Z,720
2017-03-18T13:49:14.001Z,755
2017-03-18T13:50:23.567Z,685
2017-03-18T13:51:32.808Z,620
2017-03-18T13:52:42.674Z,575
2017-03-18T13:53:52.275Z,595
2017-03-18T13:55:02.402Z,605
2017-03-18T13:56:11.295Z,630
2017-03-18T13:57:20.865Z,665
2017-03-18T13:58:30.128Z,720
2017-03-18T13:59:39.677Z,710
2017-03-18T14:00:48.817Z,720
2017-03-18T14:01:57.735Z,720
2017-03-18T14:03:06.973Z,685
2017-03-18T14:04:16.527Z,555
2017-03-18T14:05:25.750Z,495
2017-03-18T14:06:34.692Z,460
2017-03-18T14:07:44.253Z,420
2017-03-18T14:08:53.813Z,410
2017-03-18T14:10:03.365Z,430
2017-03-18T14:11:12.918Z,465
2017-03-18T14:12:22.235Z,510
2017-03-18T14:13:31.458Z,565
2017-03-18T14:14:41.328Z,625
2017-03-18T14:15:50.550Z,645
2017-03-18T14:17:00.092Z,790
2017-03-18T14:18:09.788Z,970
2017-03-18T14:19:18.716Z,855
2017-03-18T14:20:27.947Z,960
2017-03-18T14:21:37.177Z,890
2017-03-18T14:22:46.730Z,595
2017-03-18T14:23:56.708Z,500
2017-03-18T14:25:06.289Z,510
2017-03-18T14:26:15.186Z,510
2017-03-18T14:27:24.731Z,530
2017-03-18T14:28:33.956Z,640
2017-03-18T14:29:43.927Z,620
2017-03-18T14:30:52.820Z,615
2017-03-18T14:32:02.370Z,600
2017-03-18T14:33:11.933Z,710
2017-03-18T14:34:21.809Z,560
2017-03-18T14:35:31.625Z,485
2017-03-18T14:36:40.518Z,450
2017-03-18T14:37:50.100Z,570
2017-03-18T14:38:59.987Z,545
2017-03-18T14:40:08.876Z,500
2017-03-18T14:41:18.342Z,435
2017-03-18T14:42:27.564Z,410
2017-03-18T14:43:37.113Z,410
2017-03-18T14:44:46.655Z,350
2017-03-18T14:45:55.870Z,285
2017-03-18T14:47:05.251Z,225
2017-03-18T14:48:14.157Z,225
2017-03-18T14:49:24.358Z,205
2017-03-18T14:50:33.898Z,195
2017-03-18T14:51:43.443Z,190
2017-03-18T14:52:53.299Z,210
2017-03-18T14:54:03.496Z,265
2017-03-18T14:55:13.037Z,325
2017-03-18T14:56:21.953Z,325
2017-03-18T14:57:31.170Z,270
2017-03-18T14:58:41.189Z,255
2017-03-18T14:59:50.733Z,205
2017-03-18T15:00:59.948Z,200
2017-03-18T15:02:09.167Z,215
2017-03-18T15:03:19.042Z,220
2017-03-18T15:04:28.840Z,265
2017-03-18T15:05:37.729Z,255
2017-03-18T15:06:47.276Z,295
2017-03-18T15:07:56.163Z,360
2017-03-18T15:09:05.716Z,355
2017-03-18T15:10:14.764Z,340
2017-03-18T15:11:23.984Z,305
2017-03-18T15:12:32.876Z,355
2017-03-18T15:13:42.746Z,425
2017-03-18T15:14:52.300Z,485
2017-03-18T15:16:01.941Z,460
2017-03-18T15:17:11.158Z,400
2017-03-18T15:18:21.032Z,425
2017-03-18T15:19:29.932Z,450
2017-03-18T15:20:39.476Z,445
2017-03-18T15:21:48.520Z,510
2017-03-18T15:22:57.413Z,545
2017-03-18T15:24:06.967Z,430
2017-03-18T15:25:16.192Z,380
2017-03-18T15:26:25.415Z,345
2017-03-18T15:27:35.106Z,395
2017-03-18T15:28:44.990Z,480
2017-03-18T15:29:54.860Z,575
2017-03-18T15:31:04.439Z,545
2017-03-18T15:32:13.705Z,435
2017-03-18T15:33:23.407Z,345
2017-03-18T15:34:32.971Z,290
2017-03-18T15:35:42.516Z,225
2017-03-18T15:36:52.068Z,165
2017-03-18T15:38:01.945Z,145
2017-03-18T15:39:12.303Z,155
2017-03-18T15:40:21.196Z,155
2017-03-18T15:41:30.412Z,165
2017-03-18T15:42:39.628Z,175
2017-03-18T15:43:49.510Z,165
2017-03-18T15:44:59.053Z,130
2017-03-18T15:46:08.270Z,95
2017-03-18T15:47:17.162Z,75
2017-03-18T15:48:26.701Z,75
2017-03-18T15:49:35.926Z,85
2017-03-18T15:50:45.292Z,90
2017-03-18T15:51:54.514Z,100
2017-03-18T15:53:04.065Z,105
2017-03-18T15:54:13.611Z,110
2017-03-18T15:55:22.827Z,120
2017-03-18T15:56:32.298Z,140
2017-03-18T15:57:41.516Z,165
2017-03-18T15:58:51.072Z,175
2017-03-18T16:00:00.626Z,155
2017-03-18T16:01:09.854Z,105
2017-03-18T16:02:19.329Z,90
2017-03-18T16:03:28.563Z,80
2017-03-18T16:04:38.105Z,80
2017-03-18T16:05:46.998Z,85
2017-03-18T16:06:56.538Z,95
2017-03-18T16:08:06.787Z,90
2017-03-18T16:09:16.329Z,85
2017-03-18T16:10:25.869Z,85
2017-03-18T16:11:35.773Z,85
2017-03-18T16:12:45.316Z,90
2017-03-18T16:13:54.633Z,90
2017-03-18T16:15:04.180Z,85
2017-03-18T16:16:13.392Z,85
2017-03-18T16:17:22.611Z,80
2017-03-18T16:18:32.164Z,80
2017-03-18T16:19:41.636Z,85
2017-03-18T16:20:50.884Z,100
2017-03-18T16:22:00.108Z,105
2017-03-18T16:23:10.310Z,100
2017-03-18T16:24:19.859Z,90